createdAt,value
2018-07-09T00:01:28.702Z,51.00
2018-07-09T00:03:59.049Z,50.90
2018-07-09T00:06:29.270Z,51.30
2018-07-09T00:08:59.561Z,51.20
2018-07-09T00:11:29.793Z,51.30
2018-07-09T00:14:00.194Z,51.40
2018-07-09T00:16:30.619Z,51.50
2018-07-09T00:19:00.937Z,51.50
2018-07-09T00:21:31.226Z,51.50
2018-07-09T00:24:01.778Z,51.60
2018-07-09T00:26:32.134Z,51.80
2018-07-09T00:29:08.875Z,51.90
2018-07-09T00:31:39.414Z,52.00
2018-07-09T00:34:09.692Z,52.10
2018-07-09T00:36:39.981Z,52.10
2018-07-09T00:39:10.250Z,52.00
2018-07-09T00:41:40.659Z,52.10
2018-07-09T00:44:10.912Z,52.20
2018-07-09T00:46:41.344Z,52.20
2018-07-09T00:49:11.758Z,52.30
2018-07-09T00:51:42.180Z,52.10
2018-07-09T00:54:12.714Z,52.00
2018-07-09T00:56:43.115Z,52.20
2018-07-09T00:59:13.398Z,52.30
2018-07-09T01:01:43.750Z,52.40
2018-07-09T01:04:14.032Z,52.50
2018-07-09T01:06:44.607Z,52.60
2018-07-09T01:09:14.842Z,52.70
2018-07-09T01:11:47.373Z,52.80
2018-07-09T01:14:17.653Z,52.80
2018-07-09T01:16:47.913Z,52.90
2018-07-09T01:19:18.372Z,52.80
2018-07-09T01:21:48.791Z,52.90
2018-07-09T01:24:19.171Z,52.90
2018-07-09T01:26:49.575Z,53.00
2018-07-09T01:29:19.873Z,53.00
2018-07-09T01:31:50.268Z,52.90
2018-07-09T01:34:20.689Z,53.10
2018-07-09T01:36:51.021Z,53.80
2018-07-09T01:39:21.260Z,53.30
2018-07-09T01:44:21.389Z,53.50
2018-07-09T01:46:51.633Z,53.50
2018-07-09T01:49:21.912Z,53.60
2018-07-09T01:51:52.231Z,53.70
2018-07-09T01:54:22.503Z,53.80
2018-07-09T01:56:52.791Z,53.80
2018-07-09T01:59:23.048Z,53.90
2018-07-09T02:01:53.411Z,54.00
2018-07-09T02:04:23.755Z,54.00
2018-07-09T02:06:54.151Z,53.90
2018-07-09T02:09:24.352Z,54.10
2018-07-09T02:11:54.735Z,54.30
2018-07-09T02:14:24.991Z,54.20
2018-07-09T02:16:55.275Z,54.30
2018-07-09T02:19:25.550Z,54.70
2018-07-09T02:21:55.897Z,54.80
2018-07-09T02:24:26.251Z,54.80
2018-07-09T02:26:56.553Z,54.80
2018-07-09T02:29:26.839Z,54.90
2018-07-09T02:31:57.192Z,54.90
2018-07-09T02:34:27.459Z,54.90
2018-07-09T02:36:57.735Z,54.90
2018-07-09T02:39:28.129Z,54.90
2018-07-09T02:41:58.352Z,55.00
2018-07-09T02:44:28.615Z,55.20
2018-07-09T02:46:58.893Z,55.20
2018-07-09T02:49:29.070Z,55.40
2018-07-09T02:51:59.371Z,55.70
2018-07-09T02:54:29.551Z,55.80
2018-07-09T02:56:59.853Z,56.00
2018-07-09T02:59:29.973Z,55.90
2018-07-09T03:02:00.275Z,55.90
2018-07-09T03:04:30.596Z,56.10
2018-07-09T03:07:00.833Z,56.30
2018-07-09T03:09:31.051Z,56.80
2018-07-09T03:12:01.366Z,56.90
2018-07-09T03:14:31.517Z,57.10
2018-07-09T03:17:01.787Z,57.30
2018-07-09T03:19:32.074Z,57.40
2018-07-09T03:22:02.370Z,57.40
2018-07-09T03:24:32.568Z,57.60
2018-07-09T03:27:02.875Z,57.70
2018-07-09T03:29:33.060Z,57.70
2018-07-09T03:32:03.333Z,58.00
2018-07-09T03:34:33.553Z,58.20
2018-07-09T03:37:03.781Z,58.10
2018-07-09T03:39:34.038Z,58.30
2018-07-09T03:42:04.373Z,58.30
2018-07-09T03:44:34.611Z,58.60
2018-07-09T03:47:04.902Z,58.50
2018-07-09T03:49:35.160Z,58.60
2018-07-09T03:52:05.409Z,58.70
2018-07-09T03:54:35.692Z,59.00
2018-07-09T03:57:06.194Z,58.70
2018-07-09T03:59:36.437Z,58.70
2018-07-09T04:02:06.706Z,58.80
2018-07-09T04:04:36.956Z,58.70
2018-07-09T04:07:07.250Z,59.00
2018-07-09T04:09:37.456Z,59.30
2018-07-09T04:12:08.791Z,59.60
2018-07-09T04:14:39.059Z,59.60
2018-07-09T04:17:09.275Z,59.80
2018-07-09T04:19:39.531Z,59.90
2018-07-09T04:22:09.955Z,61.00
2018-07-09T04:27:40.013Z,60.30
2018-07-09T04:30:10.306Z,60.60
2018-07-09T04:32:40.611Z,60.80
2018-07-09T04:35:10.847Z,61.20
2018-07-09T04:37:41.092Z,61.40
2018-07-09T04:40:11.453Z,61.60
2018-07-09T04:42:41.611Z,62.00
2018-07-09T04:45:11.961Z,62.10
2018-07-09T04:47:42.230Z,62.40
2018-07-09T04:50:12.587Z,63.40
2018-07-09T04:52:42.790Z,62.70
2018-07-09T04:55:13.053Z,62.90
2018-07-09T04:57:43.347Z,63.00
2018-07-09T05:00:13.671Z,63.10
2018-07-09T05:02:43.993Z,63.40
2018-07-09T05:05:14.449Z,63.50
2018-07-09T05:07:44.791Z,63.60
2018-07-09T05:10:15.121Z,63.80
2018-07-09T05:12:45.399Z,64.10
2018-07-09T05:15:15.692Z,63.70
2018-07-09T05:17:46.056Z,63.90
2018-07-09T05:20:16.310Z,63.80
2018-07-09T05:22:46.651Z,64.00
2018-07-09T05:25:16.894Z,64.20
2018-07-09T05:27:47.288Z,64.10
2018-07-09T05:30:17.621Z,64.30
2018-07-09T05:32:47.950Z,64.40
2018-07-09T05:35:18.290Z,64.20
2018-07-09T05:37:48.613Z,64.20
2018-07-09T05:40:19.052Z,64.40
2018-07-09T05:45:19.326Z,64.70
2018-07-09T05:47:49.810Z,64.50
2018-07-09T05:52:50.095Z,64.10
2018-07-09T05:55:20.434Z,64.40
2018-07-09T05:57:50.830Z,63.90
2018-07-09T06:00:21.232Z,63.80
2018-07-09T06:02:51.574Z,63.50
2018-07-09T06:05:22.057Z,63.30
2018-07-09T06:07:52.580Z,62.50
2018-07-09T06:10:22.935Z,62.40
2018-07-09T06:15:23.239Z,61.10
2018-07-09T06:17:53.494Z,60.80
2018-07-09T06:20:23.862Z,60.60
2018-07-09T06:22:54.376Z,60.30
2018-07-09T06:25:24.777Z,59.90
2018-07-09T06:27:55.115Z,59.60
2018-07-09T06:30:25.596Z,58.90
2018-07-09T06:32:56.061Z,58.90
2018-07-09T06:35:26.425Z,58.90
2018-07-09T06:37:56.831Z,58.50
2018-07-09T06:40:27.213Z,58.20
2018-07-09T06:42:57.537Z,58.30
2018-07-09T06:45:27.898Z,58.20
2018-07-09T06:47:58.298Z,58.00
2018-07-09T06:50:28.691Z,57.90
2018-07-09T06:52:59.073Z,58.00
2018-07-09T06:55:29.373Z,58.20
2018-07-09T06:57:59.776Z,58.30
2018-07-09T07:00:30.052Z,58.40
2018-07-09T07:03:00.523Z,58.50
2018-07-09T07:05:30.832Z,58.60
2018-07-09T07:08:01.290Z,58.70
2018-07-09T07:10:31.609Z,58.70
2018-07-09T07:13:01.993Z,58.80
2018-07-09T07:15:32.353Z,59.40
2018-07-09T07:18:02.796Z,59.00
2018-07-09T07:20:39.631Z,59.30
2018-07-09T07:23:10.031Z,59.40
2018-07-09T07:25:40.378Z,59.50
2018-07-09T07:28:10.781Z,59.40
2018-07-09T07:30:41.131Z,59.50
2018-07-09T07:33:11.677Z,59.40
2018-07-09T07:35:41.971Z,59.30
2018-07-09T07:40:42.209Z,58.80
2018-07-09T07:43:12.518Z,58.60
2018-07-09T07:45:43.015Z,58.40
2018-07-09T07:48:13.437Z,58.30
2018-07-09T07:50:43.735Z,57.90
2018-07-09T07:53:14.116Z,57.70
2018-07-09T07:55:44.561Z,57.50
2018-07-09T07:58:14.912Z,57.30
2018-07-09T08:00:45.315Z,57.00
2018-07-09T08:03:15.631Z,56.70
2018-07-09T08:05:46.051Z,56.40
2018-07-09T08:08:16.451Z,56.00
2018-07-09T08:10:46.934Z,55.80
2018-07-09T08:13:27.997Z,55.60
2018-07-09T08:15:47.911Z,55.50
2018-07-09T08:18:18.434Z,55.50
2018-07-09T08:20:48.732Z,55.50
2018-07-09T08:23:19.214Z,55.60
2018-07-09T08:25:49.651Z,55.60
2018-07-09T08:28:20.077Z,55.60
2018-07-09T08:30:50.498Z,55.70
2018-07-09T08:33:20.898Z,55.90
2018-07-09T08:35:51.232Z,55.90
2018-07-09T08:38:21.730Z,55.60
2018-07-09T08:43:22.076Z,55.20
2018-07-09T08:45:52.484Z,55.00
2018-07-09T08:48:22.876Z,54.80
2018-07-09T08:50:55.093Z,54.80
2018-07-09T08:55:55.574Z,54.40
2018-07-09T08:58:25.973Z,53.60
2018-07-09T09:00:56.312Z,53.30
2018-07-09T09:03:26.619Z,53.30
2018-07-09T09:05:56.967Z,53.20
2018-07-09T09:08:27.273Z,52.80
2018-07-09T09:13:27.411Z,51.80
2018-07-09T09:15:57.731Z,51.30
2018-07-09T09:18:28.066Z,51.30
2018-07-09T09:20:58.427Z,51.20
2018-07-09T09:23:28.735Z,50.80
2018-07-09T09:25:59.111Z,50.70
2018-07-09T09:28:29.507Z,50.90
2018-07-09T09:30:59.792Z,50.70
2018-07-09T09:33:30.172Z,50.50
2018-07-09T09:36:00.470Z,50.20
2018-07-09T09:38:30.946Z,49.90
2018-07-09T09:41:01.310Z,49.70
2018-07-09T09:43:31.595Z,49.40
2018-07-09T09:46:01.919Z,49.00
2018-07-09T09:48:32.214Z,49.00
2018-07-09T09:51:02.450Z,49.00
2018-07-09T09:53:32.714Z,49.20
2018-07-09T09:56:03.151Z,49.20
2018-07-09T09:58:33.471Z,49.20
2018-07-09T10:01:03.800Z,49.30
2018-07-09T10:03:34.174Z,49.30
2018-07-09T10:06:04.544Z,49.20
2018-07-09T10:08:34.906Z,49.20
2018-07-09T10:11:05.730Z,49.30
2018-07-09T10:13:35.982Z,49.50
2018-07-09T10:16:06.746Z,49.60
2018-07-09T10:21:07.348Z,49.40
2018-07-09T10:23:37.621Z,49.50
2018-07-09T10:26:07.995Z,49.50
2018-07-09T10:28:38.310Z,49.60
2018-07-09T10:31:08.676Z,49.80
2018-07-09T10:33:38.927Z,49.80
2018-07-09T10:36:09.216Z,49.70
2018-07-09T10:38:39.434Z,49.80
2018-07-09T10:41:09.855Z,49.70
2018-07-09T10:43:40.290Z,49.60
2018-07-09T10:46:10.639Z,49.50
2018-07-09T10:48:40.938Z,49.60
2018-07-09T10:51:11.496Z,49.70
2018-07-09T10:53:41.796Z,49.40
2018-07-09T10:56:12.042Z,49.30
2018-07-09T10:58:42.338Z,48.90
2018-07-09T11:01:12.623Z,48.80
2018-07-09T11:03:42.984Z,49.10
2018-07-09T11:06:13.341Z,49.30
2018-07-09T11:08:43.740Z,49.50
2018-07-09T11:11:14.178Z,49.60
2018-07-09T11:13:44.514Z,49.50
2018-07-09T11:16:14.871Z,49.50
2018-07-09T11:23:45.215Z,49.60
2018-07-09T11:26:15.481Z,49.90
2018-07-09T11:28:45.872Z,50.00
2018-07-09T11:31:16.170Z,49.80
2018-07-09T11:33:46.438Z,49.70
2018-07-09T11:36:16.800Z,49.90
2018-07-09T11:38:47.049Z,50.00
2018-07-09T11:41:17.627Z,50.30
2018-07-09T11:43:47.887Z,50.30
2018-07-09T11:46:18.128Z,50.50
2018-07-09T11:48:48.380Z,50.60
2018-07-09T11:51:18.690Z,50.70
2018-07-09T11:53:48.995Z,50.90
2018-07-09T11:56:19.258Z,51.00
2018-07-09T11:58:49.579Z,51.30
2018-07-09T12:01:19.753Z,51.30
2018-07-09T12:03:50.082Z,51.30
2018-07-09T12:06:20.405Z,51.40
2018-07-09T12:08:50.612Z,51.90
2018-07-09T12:11:20.936Z,51.60
2018-07-09T12:13:51.273Z,51.60
2018-07-09T12:16:21.487Z,51.60
2018-07-09T12:18:51.710Z,51.60
2018-07-09T12:21:22.083Z,51.50
2018-07-09T12:23:52.396Z,51.40
2018-07-09T12:26:22.611Z,51.40
2018-07-09T12:28:53.013Z,51.20
2018-07-09T12:31:23.217Z,51.00
2018-07-09T12:33:53.640Z,51.00
2018-07-09T12:36:24.144Z,50.80
2018-07-09T12:38:54.263Z,50.50
2018-07-09T12:41:24.591Z,50.30
2018-07-09T12:43:54.934Z,50.20
2018-07-09T12:46:25.230Z,50.20
2018-07-09T12:48:55.435Z,50.30
2018-07-09T12:51:25.832Z,50.40
2018-07-09T12:53:56.111Z,50.40
2018-07-09T12:56:26.341Z,50.40
2018-07-09T12:58:56.911Z,50.40
2018-07-09T13:01:27.202Z,50.50
2018-07-09T13:03:57.391Z,50.50
2018-07-09T13:06:27.705Z,50.30
2018-07-09T13:11:27.900Z,50.30
2018-07-09T13:13:58.177Z,50.20
2018-07-09T13:16:28.442Z,49.90
2018-07-09T13:18:58.642Z,49.80
2018-07-09T13:21:29.039Z,49.60
2018-07-09T13:26:29.291Z,49.40
2018-07-09T13:28:59.896Z,49.20
2018-07-09T13:31:30.473Z,49.10
2018-07-09T13:34:00.832Z,49.10
2018-07-09T13:36:31.177Z,49.00
2018-07-09T13:39:01.619Z,49.00
2018-07-09T13:41:32.031Z,49.00
2018-07-09T13:44:02.374Z,49.10
2018-07-09T13:46:32.767Z,49.20
2018-07-09T13:49:03.198Z,49.20
2018-07-09T13:51:33.632Z,49.20
2018-07-09T13:54:04.100Z,49.00
2018-07-09T13:56:34.588Z,48.60
2018-07-09T13:59:04.977Z,49.00
2018-07-09T14:01:35.209Z,49.30
2018-07-09T14:04:05.633Z,49.40
2018-07-09T14:06:36.023Z,49.20
2018-07-09T14:09:07.015Z,49.20
2018-07-09T14:11:37.310Z,49.20
2018-07-09T14:14:08.150Z,49.10
2018-07-09T14:16:38.528Z,49.00
2018-07-09T14:19:25.000Z,48.90
2018-07-09T14:21:55.391Z,48.80
2018-07-09T14:24:25.768Z,48.80
2018-07-09T14:26:56.089Z,48.80
2018-07-09T14:29:26.313Z,49.00
2018-07-09T14:31:56.589Z,49.10
2018-07-09T14:34:26.887Z,49.10
2018-07-09T14:36:57.257Z,49.20
2018-07-09T14:39:27.591Z,49.30
2018-07-09T14:41:57.951Z,49.90
2018-07-09T14:44:28.257Z,50.20
2018-07-09T14:46:58.673Z,50.60
2018-07-09T14:49:28.952Z,50.80
2018-07-09T14:52:00.152Z,50.90
2018-07-09T14:57:00.211Z,51.10
2018-07-09T15:02:00.413Z,51.30
2018-07-09T15:04:30.711Z,51.40
2018-07-09T15:07:01.081Z,51.60
2018-07-09T15:09:31.414Z,51.70
2018-07-09T15:12:01.729Z,51.80
2018-07-09T15:14:32.227Z,51.60
2018-07-09T15:17:02.787Z,51.40
2018-07-09T15:19:33.089Z,51.40
2018-07-09T15:22:03.447Z,51.50
2018-07-09T15:24:33.759Z,51.40
2018-07-09T15:27:10.701Z,51.40
2018-07-09T15:29:41.380Z,51.50
2018-07-09T15:32:27.662Z,51.60
2018-07-09T15:34:58.096Z,51.40
2018-07-09T15:37:29.232Z,51.40
2018-07-09T15:39:59.558Z,52.00
2018-07-09T15:42:29.919Z,51.40
2018-07-09T15:45:00.243Z,51.40
2018-07-09T15:47:30.544Z,51.40
2018-07-09T15:50:00.869Z,51.30
2018-07-09T15:52:31.276Z,51.40
2018-07-09T15:55:06.851Z,51.20
2018-07-09T15:57:37.171Z,50.90
2018-07-09T16:00:07.582Z,50.70
2018-07-09T16:02:37.809Z,50.70
2018-07-09T16:05:08.176Z,50.90
2018-07-09T16:07:38.430Z,51.00
2018-07-09T16:10:08.654Z,51.20
2018-07-09T16:12:38.899Z,51.30
2018-07-09T16:15:09.106Z,51.80
2018-07-09T16:17:39.336Z,52.30
2018-07-09T16:20:09.595Z,52.70
2018-07-09T16:22:39.829Z,53.10
2018-07-09T16:25:10.070Z,53.20
2018-07-09T16:27:40.285Z,53.10
2018-07-09T16:30:10.537Z,53.30
2018-07-09T16:32:40.812Z,53.70
2018-07-09T16:37:40.814Z,54.10
2018-07-09T16:40:11.111Z,53.50
2018-07-09T16:42:41.320Z,53.50
2018-07-09T16:45:11.573Z,53.50
2018-07-09T16:47:41.872Z,53.10
2018-07-09T16:50:12.092Z,52.50
2018-07-09T16:52:42.400Z,52.40
2018-07-09T16:55:12.563Z,52.60
2018-07-09T16:57:42.768Z,53.10
2018-07-09T17:00:13.073Z,53.30
2018-07-09T17:02:43.324Z,53.60
2018-07-09T17:05:13.591Z,53.70
2018-07-09T17:07:43.845Z,53.50
2018-07-09T17:10:14.035Z,53.70
2018-07-09T17:12:44.294Z,53.40
2018-07-09T17:15:14.641Z,53.10
2018-07-09T17:17:44.892Z,52.20
2018-07-09T17:20:15.282Z,51.90
2018-07-09T17:22:45.711Z,51.90
2018-07-09T17:25:15.998Z,51.90
2018-07-09T17:27:46.412Z,51.90
2018-07-09T17:30:16.736Z,51.90
2018-07-09T17:32:47.132Z,51.70
2018-07-09T17:35:17.476Z,51.80
2018-07-09T17:37:47.877Z,51.80
2018-07-09T17:40:18.711Z,51.80
2018-07-09T17:42:49.159Z,51.70
2018-07-09T17:45:19.410Z,51.60
2018-07-09T17:47:49.706Z,51.50
2018-07-09T17:50:20.063Z,51.90
2018-07-09T17:52:51.384Z,52.10
2018-07-09T17:55:21.776Z,52.30
2018-07-09T17:57:52.358Z,52.60
2018-07-09T18:00:22.935Z,53.00
2018-07-09T18:02:53.471Z,53.40
2018-07-09T18:05:23.941Z,53.50
2018-07-09T18:07:54.654Z,54.00
2018-07-09T18:10:25.148Z,54.80
2018-07-09T18:12:55.698Z,55.10
2018-07-09T18:15:26.146Z,54.90
2018-07-09T18:17:56.638Z,55.30
2018-07-09T18:20:27.071Z,55.20
2018-07-09T18:22:58.241Z,55.50
2018-07-09T18:25:28.744Z,55.40
2018-07-09T18:27:59.275Z,55.60
2018-07-09T18:30:29.750Z,55.90
2018-07-09T18:33:00.221Z,56.00
2018-07-09T18:35:30.803Z,56.10
2018-07-09T18:38:01.257Z,56.10
2018-07-09T18:40:31.695Z,56.30
2018-07-09T18:43:02.153Z,56.50
2018-07-09T18:45:32.611Z,56.70
2018-07-09T18:48:03.070Z,56.60
2018-07-09T18:50:33.551Z,56.80
2018-07-09T18:53:04.001Z,56.70
2018-07-09T18:55:34.537Z,56.80
2018-07-09T18:58:05.083Z,57.10
2018-07-09T19:00:35.511Z,57.40
2018-07-09T19:03:05.981Z,57.20
2018-07-09T19:06:51.294Z,57.30
2018-07-09T19:09:22.269Z,57.40
2018-07-09T19:11:52.755Z,57.20
2018-07-09T19:14:27.601Z,57.70
2018-07-09T19:18:14.250Z,57.70
2018-07-09T19:21:31.966Z,57.60
2018-07-09T19:24:00.581Z,57.80
2018-07-09T19:26:28.740Z,58.00
2018-07-09T19:28:56.877Z,58.20
2018-07-09T19:31:25.002Z,58.40
2018-07-09T19:33:53.132Z,58.60
2018-07-09T19:36:21.257Z,58.60
2018-07-09T19:38:49.431Z,58.70
2018-07-09T19:41:17.555Z,58.50
2018-07-09T19:43:45.796Z,58.50
2018-07-09T19:46:13.917Z,58.40
2018-07-09T19:48:42.034Z,58.40
2018-07-09T19:51:10.214Z,58.60
2018-07-09T19:53:38.321Z,58.60
2018-07-09T19:56:06.484Z,58.50
2018-07-09T19:58:34.609Z,58.50
2018-07-09T20:01:02.736Z,58.30
2018-07-09T20:03:30.940Z,58.30
2018-07-09T20:05:59.181Z,58.20
2018-07-09T20:08:32.360Z,58.30
2018-07-09T20:11:05.429Z,58.30
2018-07-09T20:13:51.648Z,58.10
2018-07-09T20:16:24.770Z,58.10
2018-07-09T20:18:53.903Z,57.90
2018-07-09T20:21:22.033Z,57.70
2018-07-09T20:23:50.165Z,57.60
2018-07-09T20:26:18.319Z,57.60
2018-07-09T20:28:46.435Z,57.60
2018-07-09T20:31:14.528Z,57.70
2018-07-09T20:33:42.620Z,57.80
2018-07-09T20:36:10.792Z,57.80
2018-07-09T20:38:38.956Z,57.80
2018-07-09T20:41:07.080Z,57.80
2018-07-09T20:43:35.187Z,57.80
2018-07-09T20:46:03.362Z,57.80
2018-07-09T20:50:59.820Z,57.70
2018-07-09T20:55:56.352Z,58.00
2018-07-09T20:58:24.479Z,57.40
2018-07-09T21:00:52.570Z,57.30
2018-07-09T21:03:20.761Z,57.20
2018-07-09T21:05:48.928Z,57.20
2018-07-09T21:08:17.030Z,57.10
2018-07-09T21:10:45.251Z,57.00
2018-07-09T21:13:13.373Z,57.10
2018-07-09T21:15:41.575Z,57.20
2018-07-09T21:18:09.710Z,57.20
2018-07-09T21:20:37.831Z,57.60
2018-07-09T21:23:05.911Z,57.60
2018-07-09T21:25:34.036Z,58.00
2018-07-09T21:28:02.206Z,57.50
2018-07-09T21:30:30.333Z,57.40
2018-07-09T21:32:58.512Z,57.40
2018-07-09T21:35:26.592Z,57.30
2018-07-09T21:37:54.802Z,57.30
2018-07-09T21:40:22.908Z,57.30
2018-07-09T21:42:51.145Z,57.30
2018-07-09T21:45:19.256Z,57.30
2018-07-09T21:47:47.411Z,57.20
2018-07-09T21:50:15.511Z,57.20
2018-07-09T21:52:43.639Z,57.20
2018-07-09T21:55:11.767Z,57.10
2018-07-09T21:57:39.855Z,56.90
2018-07-09T22:00:08.008Z,56.90
2018-07-09T22:02:36.154Z,56.70
2018-07-09T22:05:04.260Z,56.50
2018-07-09T22:07:32.408Z,56.50
2018-07-09T22:10:00.484Z,56.50
2018-07-09T22:12:28.604Z,56.40
2018-07-09T22:14:56.751Z,56.40
2018-07-09T22:17:24.886Z,56.30
2018-07-09T22:22:21.448Z,56.20
2018-07-09T22:24:49.562Z,56.20
2018-07-09T22:27:17.691Z,56.30
2018-07-09T22:29:45.842Z,56.30
2018-07-09T22:32:16.245Z,56.20
2018-07-09T22:34:46.547Z,56.30
2018-07-09T22:37:16.930Z,56.30
2018-07-09T22:39:47.359Z,56.30
2018-07-09T22:42:17.990Z,55.90
2018-07-09T22:44:48.623Z,56.40
2018-07-09T22:47:18.861Z,56.40
2018-07-09T22:49:49.136Z,56.60
2018-07-09T22:52:19.477Z,56.60
2018-07-09T22:55:01.184Z,56.60
2018-07-09T22:57:31.496Z,56.70
2018-07-09T23:00:01.859Z,56.70
2018-07-09T23:05:02.143Z,56.80
2018-07-09T23:07:35.331Z,56.90
2018-07-09T23:10:22.071Z,56.90
2018-07-09T23:13:50.031Z,57.00
2018-07-09T23:18:01.783Z,57.00
2018-07-09T23:22:54.108Z,57.10
2018-07-09T23:25:22.251Z,56.90
2018-07-09T23:27:50.349Z,57.00
2018-07-09T23:30:18.428Z,57.10
2018-07-09T23:32:46.553Z,57.10
2018-07-09T23:35:14.663Z,57.10
2018-07-09T23:37:42.756Z,57.20
2018-07-09T23:40:10.860Z,57.20
2018-07-09T23:42:38.940Z,57.20
2018-07-09T23:45:07.039Z,57.10
2018-07-09T23:47:35.147Z,57.20
2018-07-09T23:50:03.212Z,57.30
2018-07-09T23:52:31.295Z,57.40
2018-07-09T23:54:59.379Z,57.50
2018-07-09T23:59:50.125Z,57.60
